createdAt,value
2023-02-24T00:00:51.136Z,62.60
2023-02-24T00:03:23.611Z,62.64
2023-02-24T00:05:56.231Z,62.81
2023-02-24T00:08:28.849Z,62.86
2023-02-24T00:11:01.458Z,62.72
2023-02-24T00:13:35.558Z,62.65
2023-02-24T00:16:08.882Z,62.74
2023-02-24T00:18:41.534Z,62.74
2023-02-24T00:21:17.549Z,62.64
2023-02-24T00:23:50.331Z,62.42
2023-02-24T00:26:23.300Z,62.47
2023-02-24T00:28:55.856Z,62.58
2023-02-24T00:31:31.416Z,62.59
2023-02-24T00:34:04.551Z,62.68
2023-02-24T00:36:37.170Z,62.75
2023-02-24T00:39:11.229Z,62.46
2023-02-24T00:41:45.305Z,62.79
2023-02-24T00:44:17.889Z,62.31
2023-02-24T00:46:51.768Z,62.39
2023-02-24T00:49:24.620Z,62.45
2023-02-24T00:51:56.863Z,62.30
2023-02-24T00:54:29.390Z,62.49
2023-02-24T00:57:02.981Z,62.35
2023-02-24T00:59:35.665Z,62.24
2023-02-24T01:02:08.464Z,62.29
2023-02-24T01:04:40.842Z,62.45
2023-02-24T01:07:13.944Z,62.59
2023-02-24T01:09:46.439Z,62.11
2023-02-24T01:12:49.604Z,62.56
2023-02-24T01:15:24.537Z,62.31
2023-02-24T01:17:56.847Z,62.29
2023-02-24T01:20:30.574Z,62.19
2023-02-24T01:23:03.593Z,62.28
2023-02-24T01:25:36.003Z,62.33
2023-02-24T01:28:11.205Z,62.07
2023-02-24T01:30:44.582Z,62.28
2023-02-24T01:33:17.046Z,62.27
2023-02-24T01:35:49.430Z,62.12
2023-02-24T01:38:23.244Z,62.08
2023-02-24T01:41:05.160Z,62.20
2023-02-24T01:43:59.281Z,62.29
2023-02-24T01:46:33.321Z,62.29
2023-02-24T01:49:10.059Z,62.22
2023-02-24T01:51:46.218Z,62.13
2023-02-24T01:54:22.688Z,62.12
2023-02-24T01:56:57.656Z,62.03
2023-02-24T01:59:32.114Z,62.05
2023-02-24T02:02:07.164Z,62.15
2023-02-24T02:04:45.922Z,62.03
2023-02-24T02:07:23.189Z,62.18
2023-02-24T02:09:56.023Z,62.27
2023-02-24T02:12:31.175Z,62.18
2023-02-24T02:15:03.683Z,62.48
2023-02-24T02:17:43.166Z,62.27
2023-02-24T02:20:53.842Z,62.33
2023-02-24T02:23:54.254Z,62.34
2023-02-24T02:27:03.457Z,62.46
2023-02-24T02:29:59.176Z,62.38
2023-02-24T02:32:55.314Z,62.31
2023-02-24T02:35:36.989Z,62.22
2023-02-24T02:38:16.034Z,62.62
2023-02-24T02:40:55.430Z,62.29
2023-02-24T02:43:34.563Z,62.16
2023-02-24T02:46:14.934Z,62.24
2023-02-24T02:48:54.688Z,62.20
2023-02-24T02:51:31.787Z,62.36
2023-02-24T02:54:12.159Z,62.40
2023-02-24T02:56:49.240Z,62.21
2023-02-24T02:59:25.395Z,62.54
2023-02-24T03:02:11.798Z,62.32
2023-02-24T03:04:48.024Z,62.39
2023-02-24T03:07:24.997Z,62.31
2023-02-24T03:10:01.866Z,62.55
2023-02-24T03:12:37.401Z,62.54
2023-02-24T03:15:15.296Z,62.35
2023-02-24T03:17:50.743Z,62.29
2023-02-24T03:20:29.485Z,62.58
2023-02-24T03:23:08.545Z,62.56
2023-02-24T03:25:46.917Z,62.60
2023-02-24T03:28:23.786Z,62.48
2023-02-24T03:31:03.781Z,62.43
2023-02-24T03:33:41.575Z,62.71
2023-02-24T03:36:15.388Z,62.49
2023-02-24T03:38:50.480Z,62.52
2023-02-24T03:41:23.243Z,62.41
2023-02-24T03:43:55.924Z,62.54
2023-02-24T03:46:30.067Z,62.38
2023-02-24T03:49:13.175Z,62.42
2023-02-24T03:51:57.127Z,62.54
2023-02-24T03:54:44.574Z,62.51
2023-02-24T03:57:26.028Z,62.69
2023-02-24T04:00:20.536Z,62.21
2023-02-24T04:02:57.405Z,62.41
2023-02-24T04:05:32.946Z,62.34
2023-02-24T04:08:08.804Z,62.51
2023-02-24T04:10:52.742Z,62.56
2023-02-24T04:13:37.273Z,62.40
2023-02-24T04:16:18.486Z,62.15
2023-02-24T04:18:53.609Z,62.52
2023-02-24T04:21:28.145Z,62.30
2023-02-24T04:24:06.358Z,62.29
2023-02-24T04:26:40.552Z,62.28
2023-02-24T04:29:20.633Z,62.28
2023-02-24T04:32:00.545Z,62.48
2023-02-24T04:34:33.567Z,62.56
2023-02-24T04:37:05.760Z,62.42
2023-02-24T04:39:39.117Z,62.67
2023-02-24T04:42:11.464Z,62.61
2023-02-24T04:44:45.599Z,62.41
2023-02-24T04:47:17.889Z,62.40
2023-02-24T04:49:50.179Z,62.41
2023-02-24T04:52:22.603Z,62.31
2023-02-24T04:54:54.974Z,62.33
2023-02-24T04:57:27.255Z,62.53
2023-02-24T04:59:59.625Z,62.44
2023-02-24T05:02:33.488Z,62.35
2023-02-24T05:05:08.085Z,62.24
2023-02-24T05:07:40.476Z,62.66
2023-02-24T05:10:14.629Z,62.32
2023-02-24T05:12:47.323Z,62.31
2023-02-24T05:15:19.726Z,62.39
2023-02-24T05:17:53.412Z,62.51
2023-02-24T05:20:45.501Z,62.45
2023-02-24T05:23:18.305Z,62.54
2023-02-24T05:25:55.105Z,62.36
2023-02-24T05:28:31.697Z,62.46
2023-02-24T05:31:11.242Z,62.35
2023-02-24T05:33:45.060Z,62.63
2023-02-24T05:36:19.857Z,62.61
2023-02-24T05:38:58.067Z,62.48
2023-02-24T05:41:32.727Z,62.36
2023-02-24T05:44:08.726Z,62.76
2023-02-24T05:46:42.746Z,62.55
2023-02-24T05:49:23.640Z,62.48
2023-02-24T05:51:58.451Z,62.46
2023-02-24T05:54:34.405Z,62.74
2023-02-24T05:57:06.277Z,62.73
2023-02-24T05:59:39.341Z,62.79
2023-02-24T06:02:14.521Z,62.89
2023-02-24T06:04:51.427Z,62.59
2023-02-24T06:07:26.377Z,62.74
2023-02-24T06:10:00.290Z,62.89
2023-02-24T06:12:34.814Z,62.91
2023-02-24T06:15:08.564Z,63.01
2023-02-24T06:17:40.918Z,62.89
2023-02-24T06:20:15.912Z,63.01
2023-02-24T06:22:48.824Z,63.06
2023-02-24T06:25:21.595Z,62.90
2023-02-24T06:27:54.820Z,62.76
2023-02-24T06:30:27.867Z,62.93
2023-02-24T06:33:00.224Z,63.03
2023-02-24T06:35:32.998Z,62.78
2023-02-24T06:38:05.320Z,63.21
2023-02-24T06:40:37.904Z,62.90
2023-02-24T06:43:12.285Z,63.11
2023-02-24T06:45:45.603Z,63.02
2023-02-24T06:48:18.319Z,63.06
2023-02-24T06:50:51.829Z,63.11
2023-02-24T06:53:26.742Z,62.99
2023-02-24T06:55:59.148Z,62.96
2023-02-24T06:58:31.777Z,62.68
2023-02-24T07:01:04.768Z,62.94
2023-02-24T07:03:40.531Z,62.73
2023-02-24T07:06:20.548Z,62.80
2023-02-24T07:08:54.160Z,62.84
2023-02-24T07:11:27.278Z,62.92
2023-02-24T07:14:00.037Z,62.88
2023-02-24T07:16:34.759Z,62.76
2023-02-24T07:19:11.475Z,62.63
2023-02-24T07:21:50.145Z,62.80
2023-02-24T07:24:33.438Z,62.78
2023-02-24T07:27:07.839Z,62.59
2023-02-24T07:29:41.122Z,62.79
2023-02-24T07:32:14.004Z,62.79
2023-02-24T07:34:46.904Z,62.79
2023-02-24T07:37:20.751Z,62.66
2023-02-24T07:39:53.223Z,62.80
2023-02-24T07:42:25.865Z,62.72
2023-02-24T07:44:58.205Z,62.46
2023-02-24T07:47:30.471Z,62.72
2023-02-24T07:50:03.181Z,62.66
2023-02-24T07:52:36.651Z,62.77
2023-02-24T07:55:10.742Z,62.55
2023-02-24T07:57:46.660Z,62.45
2023-02-24T08:00:20.744Z,62.52
2023-02-24T08:02:56.287Z,62.84
2023-02-24T08:05:30.686Z,62.71
2023-02-24T08:08:03.290Z,62.87
2023-02-24T08:10:37.401Z,62.92
2023-02-24T08:13:12.145Z,62.90
2023-02-24T08:15:56.305Z,63.05
2023-02-24T08:18:37.539Z,63.05
2023-02-24T08:21:09.938Z,63.14
2023-02-24T08:23:44.767Z,63.16
2023-02-24T08:26:17.119Z,63.08
2023-02-24T08:28:51.675Z,63.35
2023-02-24T08:31:24.503Z,63.06
2023-02-24T08:33:57.178Z,63.16
2023-02-24T08:36:29.475Z,63.29
2023-02-24T08:39:01.851Z,63.06
2023-02-24T08:41:49.126Z,63.12
2023-02-24T08:44:27.197Z,63.33
2023-02-24T08:47:01.013Z,63.19
2023-02-24T08:49:33.904Z,63.15
2023-02-24T08:52:07.377Z,63.21
2023-02-24T08:54:48.241Z,63.21
2023-02-24T08:57:20.626Z,63.50
2023-02-24T08:59:57.889Z,63.32
2023-02-24T09:02:30.486Z,63.45
2023-02-24T09:05:05.531Z,63.40
2023-02-24T09:07:40.912Z,63.30
2023-02-24T09:10:17.957Z,63.40
2023-02-24T09:12:53.676Z,63.56
2023-02-24T09:15:41.482Z,63.48
2023-02-24T09:18:15.485Z,63.50
2023-02-24T09:21:16.321Z,63.46
2023-02-24T09:23:48.780Z,63.50
2023-02-24T09:26:21.103Z,63.69
2023-02-24T09:28:56.915Z,63.50
2023-02-24T09:31:41.061Z,63.50
2023-02-24T09:34:18.760Z,63.50
2023-02-24T09:37:03.224Z,63.56
2023-02-24T09:39:51.781Z,63.64
2023-02-24T09:42:46.517Z,63.74
2023-02-24T09:45:33.466Z,63.58
2023-02-24T09:48:16.907Z,63.63
2023-02-24T09:51:05.338Z,63.57
2023-02-24T09:53:49.454Z,63.57
2023-02-24T09:56:28.704Z,63.59
2023-02-24T09:59:12.800Z,63.43
2023-02-24T10:01:52.878Z,63.49
2023-02-24T10:04:40.844Z,63.58
2023-02-24T10:07:17.316Z,63.60
2023-02-24T10:10:02.105Z,63.56
2023-02-24T10:12:40.473Z,63.81
2023-02-24T10:15:41.901Z,63.61
2023-02-24T10:18:28.362Z,63.71
2023-02-24T10:21:15.710Z,63.21
2023-02-24T10:24:02.024Z,63.51
2023-02-24T10:26:51.318Z,63.32
2023-02-24T10:29:46.940Z,63.47
2023-02-24T10:32:34.007Z,63.76
2023-02-24T10:35:07.352Z,63.39
2023-02-24T10:37:39.643Z,63.59
2023-02-24T10:40:24.926Z,63.39
2023-02-24T10:43:10.875Z,63.47
2023-02-24T10:45:45.803Z,63.51
2023-02-24T10:48:40.605Z,63.44
2023-02-24T10:51:20.334Z,63.16
2023-02-24T10:54:22.561Z,63.22
2023-02-24T10:57:08.087Z,63.32
2023-02-24T11:00:21.061Z,63.10
2023-02-24T11:03:07.405Z,62.92
2023-02-24T11:05:44.478Z,63.04
2023-02-24T11:08:36.889Z,63.11
2023-02-24T11:11:25.970Z,63.11
2023-02-24T11:14:17.305Z,63.07
2023-02-24T11:17:09.793Z,62.96
2023-02-24T11:19:49.543Z,62.89
2023-02-24T11:22:26.612Z,62.86
2023-02-24T11:25:05.271Z,62.87
2023-02-24T11:27:41.902Z,63.00
2023-02-24T11:30:27.932Z,63.15
2023-02-24T11:33:28.940Z,62.85
2023-02-24T11:36:12.828Z,62.87
2023-02-24T11:39:17.293Z,62.90
2023-02-24T11:41:55.633Z,62.78
2023-02-24T11:44:34.688Z,62.93
2023-02-24T11:47:15.525Z,62.78
2023-02-24T11:49:53.780Z,62.80
2023-02-24T11:52:31.849Z,62.77
2023-02-24T11:55:15.405Z,62.71
2023-02-24T11:57:53.897Z,62.74
2023-02-24T12:00:29.948Z,62.72
2023-02-24T12:03:09.578Z,62.71
2023-02-24T12:05:46.037Z,62.82
2023-02-24T12:08:29.108Z,62.67
2023-02-24T12:11:08.158Z,62.61
2023-02-24T12:13:47.355Z,62.69
2023-02-24T12:16:23.968Z,62.76
2023-02-24T12:19:03.794Z,62.67
2023-02-24T12:21:40.144Z,62.70
2023-02-24T12:24:17.147Z,62.74
2023-02-24T12:27:01.488Z,62.78
2023-02-24T12:30:06.575Z,62.95
2023-02-24T12:32:58.798Z,62.67
2023-02-24T12:35:40.801Z,62.76
2023-02-24T12:38:43.536Z,62.84
2023-02-24T12:41:37.930Z,63.09
2023-02-24T12:44:26.725Z,63.10
2023-02-24T12:47:06.905Z,63.10
2023-02-24T12:50:06.968Z,63.31
2023-02-24T12:52:54.055Z,63.17
2023-02-24T12:55:36.372Z,62.99
2023-02-24T12:58:15.020Z,63.10
2023-02-24T13:00:56.443Z,63.22
2023-02-24T13:03:44.540Z,63.06
2023-02-24T13:06:25.894Z,63.32
2023-02-24T13:09:06.353Z,63.27
2023-02-24T13:11:47.281Z,63.23
2023-02-24T13:14:28.416Z,63.27
2023-02-24T13:17:20.984Z,63.25
2023-02-24T13:19:55.415Z,63.15
2023-02-24T13:22:30.841Z,63.26
2023-02-24T13:25:19.197Z,63.31
2023-02-24T13:28:01.244Z,63.18
2023-02-24T13:30:42.183Z,63.05
2023-02-24T13:33:30.164Z,63.16
2023-02-24T13:36:20.680Z,63.18
2023-02-24T13:39:04.940Z,63.03
2023-02-24T13:41:42.480Z,63.06
2023-02-24T13:44:32.020Z,63.06
2023-02-24T13:47:34.407Z,62.98
2023-02-24T13:50:22.106Z,63.00
2023-02-24T13:53:12.020Z,63.01
2023-02-24T13:55:55.146Z,62.94
2023-02-24T13:58:40.057Z,62.91
2023-02-24T14:01:15.256Z,62.80
2023-02-24T14:04:03.117Z,62.85
2023-02-24T14:06:36.678Z,62.85
2023-02-24T14:09:09.646Z,62.64
2023-02-24T14:11:42.383Z,62.71
2023-02-24T14:14:19.939Z,62.54
2023-02-24T14:16:53.234Z,62.54
2023-02-24T14:19:27.846Z,62.59
2023-02-24T14:22:01.541Z,62.63
2023-02-24T14:24:33.939Z,62.62
2023-02-24T14:27:07.732Z,62.61
2023-02-24T14:29:44.158Z,62.63
2023-02-24T14:32:24.414Z,62.63
2023-02-24T14:34:57.511Z,62.59
2023-02-24T14:37:33.046Z,62.51
2023-02-24T14:40:06.096Z,62.68
2023-02-24T14:42:47.441Z,62.55
2023-02-24T14:45:26.706Z,62.74
2023-02-24T14:47:59.723Z,62.72
2023-02-24T14:50:34.701Z,62.76
2023-02-24T14:53:11.501Z,62.83
2023-02-24T14:55:48.128Z,62.75
2023-02-24T14:58:26.529Z,62.89
2023-02-24T15:01:03.685Z,62.70
2023-02-24T15:03:42.271Z,62.86
2023-02-24T15:06:28.131Z,62.91
2023-02-24T15:09:04.225Z,62.84
2023-02-24T15:11:37.406Z,62.92
2023-02-24T15:14:24.259Z,63.02
2023-02-24T15:17:00.588Z,62.94
2023-02-24T15:19:38.297Z,63.17
2023-02-24T15:22:25.679Z,63.15
2023-02-24T15:25:18.260Z,63.22
2023-02-24T15:27:55.794Z,63.29
2023-02-24T15:30:35.442Z,63.24
2023-02-24T15:33:17.551Z,63.19
2023-02-24T15:35:54.090Z,63.29
2023-02-24T15:38:30.815Z,63.36
2023-02-24T15:41:05.955Z,63.35
2023-02-24T15:43:40.832Z,63.35
2023-02-24T15:46:25.852Z,63.38
2023-02-24T15:49:03.183Z,63.29
2023-02-24T15:51:39.453Z,63.46
2023-02-24T15:54:16.322Z,63.45
2023-02-24T15:56:50.206Z,63.36
2023-02-24T15:59:22.723Z,63.38
2023-02-24T16:01:55.213Z,63.39
2023-02-24T16:04:27.955Z,63.42
2023-02-24T16:07:00.692Z,63.42
2023-02-24T16:09:37.598Z,63.47
2023-02-24T16:12:14.735Z,63.47
2023-02-24T16:14:48.048Z,63.51
2023-02-24T16:17:29.625Z,63.72
2023-02-24T16:20:02.658Z,63.66
2023-02-24T16:22:35.193Z,63.67
2023-02-24T16:25:08.930Z,63.75
2023-02-24T16:27:43.141Z,63.74
2023-02-24T16:30:22.925Z,63.71
2023-02-24T16:32:55.868Z,63.78
2023-02-24T16:35:29.540Z,63.74
2023-02-24T16:38:02.173Z,63.81
2023-02-24T16:40:38.396Z,63.65
2023-02-24T16:43:11.297Z,63.83
2023-02-24T16:45:45.315Z,63.90
2023-02-24T16:48:24.329Z,63.94
2023-02-24T16:50:56.834Z,63.74
2023-02-24T16:53:29.228Z,63.84
2023-02-24T16:56:02.192Z,63.83
2023-02-24T16:58:35.028Z,64.03
2023-02-24T17:01:09.671Z,63.96
2023-02-24T17:03:45.507Z,63.96
2023-02-24T17:06:16.245Z,63.91
2023-02-24T17:08:48.938Z,63.85
2023-02-24T17:11:22.703Z,64.02
2023-02-24T17:13:55.056Z,63.80
2023-02-24T17:16:27.474Z,63.84
2023-02-24T17:18:59.892Z,64.09
2023-02-24T17:21:32.312Z,64.03
2023-02-24T17:24:04.660Z,64.20
2023-02-24T17:26:37.020Z,64.08
2023-02-24T17:29:09.355Z,64.21
2023-02-24T17:31:42.458Z,64.22
2023-02-24T17:34:15.144Z,64.26
2023-02-24T17:36:47.414Z,64.19
2023-02-24T17:39:19.854Z,64.21
2023-02-24T17:41:52.331Z,64.26
2023-02-24T17:44:24.600Z,64.28
2023-02-24T17:46:56.962Z,64.36
2023-02-24T17:49:29.373Z,64.37
2023-02-24T17:52:01.843Z,64.23
2023-02-24T17:54:34.431Z,64.22
2023-02-24T17:57:08.438Z,64.32
2023-02-24T17:59:43.727Z,64.51
2023-02-24T18:02:17.606Z,64.38
2023-02-24T18:04:52.434Z,64.32
2023-02-24T18:07:25.259Z,64.37
2023-02-24T18:09:59.636Z,64.46
2023-02-24T18:12:32.325Z,64.51
2023-02-24T18:15:09.156Z,64.39
2023-02-24T18:17:41.975Z,64.42
2023-02-24T18:20:15.862Z,64.52
2023-02-24T18:22:48.142Z,64.51
2023-02-24T18:25:20.843Z,64.66
2023-02-24T18:27:53.196Z,64.61
2023-02-24T18:30:25.554Z,64.60
2023-02-24T18:32:58.059Z,64.64
2023-02-24T18:35:32.412Z,64.60
2023-02-24T18:38:04.826Z,64.54
2023-02-24T18:40:37.070Z,64.44
2023-02-24T18:43:09.531Z,64.68
2023-02-24T18:45:41.855Z,64.85
2023-02-24T18:48:14.098Z,64.73
2023-02-24T18:50:46.457Z,64.92
2023-02-24T18:53:18.876Z,64.94
2023-02-24T18:55:51.750Z,64.79
2023-02-24T18:58:24.169Z,64.92
2023-02-24T19:00:56.683Z,64.93
2023-02-24T19:03:29.208Z,64.94
2023-02-24T19:06:01.565Z,65.03
2023-02-24T19:08:33.966Z,65.18
2023-02-24T19:11:13.219Z,65.10
2023-02-24T19:13:47.659Z,65.27
2023-02-24T19:16:21.245Z,64.91
2023-02-24T19:18:58.466Z,65.21
2023-02-24T19:21:32.586Z,65.21
2023-02-24T19:24:08.446Z,65.19
2023-02-24T19:26:42.231Z,65.15
2023-02-24T19:29:16.477Z,65.21
2023-02-24T19:31:54.036Z,65.43
2023-02-24T19:34:26.847Z,65.36
2023-02-24T19:36:59.175Z,65.45
2023-02-24T19:39:31.642Z,65.26
2023-02-24T19:42:04.072Z,65.47
2023-02-24T19:44:36.854Z,65.66
2023-02-24T19:47:11.858Z,65.42
2023-02-24T19:49:44.311Z,65.68
2023-02-24T19:52:16.772Z,65.39
2023-02-24T19:54:49.095Z,65.57
2023-02-24T19:57:21.449Z,65.70
2023-02-24T19:59:54.352Z,65.71
2023-02-24T20:02:27.414Z,65.58
2023-02-24T20:05:01.043Z,65.77
2023-02-24T20:07:34.330Z,65.88
2023-02-24T20:10:07.612Z,65.86
2023-02-24T20:12:40.255Z,65.95
2023-02-24T20:15:13.852Z,65.62
2023-02-24T20:17:47.299Z,65.70
2023-02-24T20:20:21.567Z,65.75
2023-02-24T20:22:53.882Z,65.80
2023-02-24T20:25:26.273Z,65.87
2023-02-24T20:27:58.639Z,65.94
2023-02-24T20:30:31.066Z,66.04
2023-02-24T20:33:03.355Z,66.03
2023-02-24T20:35:40.460Z,65.95
2023-02-24T20:38:12.972Z,66.14
2023-02-24T20:40:45.528Z,65.96
2023-02-24T20:43:17.834Z,65.87
2023-02-24T20:45:50.127Z,66.21
2023-02-24T20:48:22.520Z,65.95
2023-02-24T20:50:55.023Z,66.01
2023-02-24T20:53:27.370Z,65.96
2023-02-24T20:56:05.881Z,66.22
2023-02-24T20:58:38.104Z,66.05
2023-02-24T21:01:12.305Z,66.16
2023-02-24T21:03:45.037Z,66.27
2023-02-24T21:06:19.015Z,66.34
2023-02-24T21:08:51.319Z,66.24
2023-02-24T21:11:24.828Z,66.14
2023-02-24T21:13:57.488Z,66.01
2023-02-24T21:16:30.313Z,66.13
2023-02-24T21:19:02.764Z,66.06
2023-02-24T21:21:35.113Z,65.99
2023-02-24T21:24:08.814Z,66.18
2023-02-24T21:26:41.478Z,66.50
2023-02-24T21:29:13.794Z,66.23
2023-02-24T21:31:47.015Z,66.38
2023-02-24T21:34:20.093Z,66.15
2023-02-24T21:36:52.339Z,66.34
2023-02-24T21:39:24.837Z,66.37
2023-02-24T21:41:57.136Z,66.24
2023-02-24T21:44:29.586Z,66.31
2023-02-24T21:47:01.986Z,66.38
2023-02-24T21:49:34.518Z,66.34
2023-02-24T21:52:07.690Z,66.42
2023-02-24T21:54:40.395Z,66.42
2023-02-24T21:57:12.680Z,66.55
2023-02-24T21:59:45.130Z,66.34
2023-02-24T22:02:17.735Z,66.39
2023-02-24T22:04:52.124Z,66.35
2023-02-24T22:07:24.684Z,66.39
2023-02-24T22:09:57.211Z,66.31
2023-02-24T22:12:29.558Z,66.34
2023-02-24T22:15:02.009Z,66.37
2023-02-24T22:17:35.207Z,66.42
2023-02-24T22:20:10.547Z,66.61
2023-02-24T22:22:44.476Z,66.40
2023-02-24T22:25:16.841Z,66.42
2023-02-24T22:27:49.083Z,66.46
2023-02-24T22:30:21.748Z,66.53
2023-02-24T22:32:54.186Z,66.58
2023-02-24T22:35:27.284Z,66.47
2023-02-24T22:37:59.585Z,66.64
2023-02-24T22:40:31.954Z,66.54
2023-02-24T22:43:05.185Z,66.52
2023-02-24T22:45:37.441Z,66.73
2023-02-24T22:48:10.078Z,66.38
2023-02-24T22:50:42.511Z,66.31
2023-02-24T22:53:14.789Z,66.47
2023-02-24T22:55:49.891Z,66.68
2023-02-24T22:58:24.036Z,66.50
2023-02-24T23:00:57.047Z,66.69
2023-02-24T23:03:31.767Z,66.60
2023-02-24T23:06:05.825Z,66.72
2023-02-24T23:08:39.813Z,67.09
2023-02-24T23:11:15.212Z,66.72
2023-02-24T23:13:49.235Z,66.81
2023-02-24T23:16:24.158Z,66.86
2023-02-24T23:18:58.497Z,66.80
2023-02-24T23:21:36.006Z,66.93
2023-02-24T23:24:11.215Z,66.71
2023-02-24T23:26:45.681Z,66.88
2023-02-24T23:29:19.745Z,66.90
2023-02-24T23:31:52.890Z,66.92
2023-02-24T23:34:26.524Z,66.88
2023-02-24T23:36:58.975Z,66.86
2023-02-24T23:39:31.383Z,66.94
2023-02-24T23:42:03.839Z,66.89
2023-02-24T23:44:39.406Z,66.88
2023-02-24T23:47:10.381Z,67.19
2023-02-24T23:49:48.424Z,66.83
2023-02-24T23:52:22.318Z,67.07
2023-02-24T23:54:54.892Z,66.98
2023-02-24T23:57:28.763Z,67.15
